GMME/RBA METAR and TAF weather

Enter ICAO airport designator
Station Type Date Time Source
GMME METAR 2020/11/28 19:30 UTC NOAA

GMME 281930Z 23007KT 8000 SCT011 SCT016 15/12 Q1011 NOSIG


Station Type Date Time Source
GMME Decoded METAR 2020/11/28 19:30 UTC NOAA

Rabat-Sale, Morocco (GMME) 34-03N 006-46W 75M
Nov 28, 2020 - 02:30 PM EST / 2020.11.28 1930 UTC
Wind: from the SW (230 degrees) at 8 MPH (7 KT):0
Visibility: 4 mile(s):0
Sky conditions: partly cloudy
Temperature: 59 F (15 C)
Dew Point: 53 F (12 C)
Relative Humidity: 82%
Pressure (altimeter): 29.85 in. Hg (1011 hPa)
ob: GMME 281930Z 23007KT 8000 SCT011 SCT016 15/12 Q1011 NOSIG
cycle: 19

Station Type Date Time Source
GMME TAF 2020/11/28 18:04 UTC NOAA

TAF COR GMME 281700Z 2818/2924 24013KT 6000 SCT015 BKN020
TEMPO 2820/2906 18012KT 3000 TSRA SCT010 BKN015 SCT026CB OVC056

Example: see airport list